Pagrindinis puslapis
METAR-TAF:

METAR-TAF

Oro uostai :

Tin City, Aliaska, Jungtinės Amerikos Valstijos

platuma: 65-34N, ilguma: 167-55W, Aukštis: 83 m

Dabartinis oras

Ataskaita buvo paskelbta 16 minutes, ne 03:55 UTC
Vėjas 23 kt iš Šiaurės/Šiaurės Rytų
Temperatūra 10°C
Drėgmė 87%
Slėgis 1006 hPa
Matomumas: 16.1 km
Su prošvaistėmis ne aukštis 8000 ft

METAR: PATC 160355Z AUTO 02023KT 10SM BKN080 10/08 A2972 RMK AO2 PK WND 02026/0255 SLP066 T01020083

Laikas: 20:11 (04:11 UTC)


TAF: trūkstamas

Orai ataskaitas ir orų prognozės (METAR, TAF).

turimą stotys yra geltonos ir raudonos taškus žemėlapyje.

Perkelti pele per norėdami pamatyti stoties vardą.

Tada spustelėkite, norėdami matyti oro stebėjimo ir prognozės.

Norėdami pakeisti žemėlapį: spustelėkite ant žalios mygtukų su juodo kryžiaus žemyn,; žalią mygtuką su brūkšneliu, jei norite nutolinti; arba žalių rodyklių gretimoms žemėlapius.


METAR-TAF: